Budapest Ferihegy, Hungary

5:33 PM CEST on September 02, 2014 (GMT +0200)
Ferihegy | Change Station
CLOSE
Current Station
Airport
Location: Budapest Ferihegy,
Elevation: 607 ft
Nearby Weather Stations

Elev 607 ft 47.44 °N, 19.26 °E | Updated 3 minutes ago

Clear
Clear
72 °F
Feels Like 72 °F
N
12
Wind Variable Wind from WNW

Today
High -- | Low -- °F
--% Chance of Precip.
Yesterday
High -- | Low -- °F
Precip. -- in
6:02 AM 7:21 PM
First Quarter, 52% visible
Pressure 29.86 in
Visibility -9999.0 miles
Clouds
Dew Point 64 °F
Humidity 78%
Rainfall 0.00 in
Snow Depth Not available.
UV Not available.
Pollen Not available.
Air Quality Not available.
Flu Activity Not available.
METAR LHBP 021530Z 29010KT CAVOK 22/18 Q1011 NOSIG

More Conditions Fewer Conditions

Pressure 29.86 in
Visibility -9999.0 miles
Clouds
Dew Point 64 °F
Humidity 78%
Rainfall 0.00 in
Snow Depth Not available.
UV Not available.
Pollen Not available.
Air Quality Not available.
Flu Activity Not available.
METAR LHBP 021530Z 29010KT CAVOK 22/18 Q1011 NOSIG

More Conditions Fewer Conditions

10-Day Weather Forecast

Almanac

Astronomy

Sep. 02, 2014 Rise Set
Actual Time 6:02 AM CEST 7:21 PM CEST
Civil Twilight 5:30 AM CEST 7:53 PM CEST
Nautical Twilight 4:52 AM CEST 8:31 PM CEST
Astronomical Twilight 4:11 AM CEST 9:12 PM CEST
Moon 1:58 PM CEST 11:29 PM CEST
Length of Visible Light 14h 22m
Length of Day
13h 19m
Tomorrow will be 3m 18s shorter.
First Quarter, 52% of the Moon is Illuminated
Today
First Quarter
Sep 8
Full
Sep 15
Last Quarter
Sep 24
New
Oct 1
First Quarter

Today's Extremes

Country Highs Country Lows

Community

WunderPhotos

Upload Photos

1,749,700 photos uploaded!

Nearby

Snow Depth

Not available.

Earthquake Activity

City Distance Mag. Time & Date
No recent earthquake activity has been reported nearby.
Minimum magnitude displayed is 2.5.

Coastal Water Temperatures

Place Temperature
No Stations Reporting

Nearby Weather Stations